createdAt,value
2023-01-07T00:00:19.390Z,6.59
2023-01-07T00:01:19.727Z,6.6
2023-01-07T00:02:20.065Z,6.56
2023-01-07T00:03:21.249Z,6.64
2023-01-07T00:04:22.109Z,6.62
2023-01-07T00:05:22.336Z,6.65
2023-01-07T00:06:22.877Z,6.56
2023-01-07T00:07:23.227Z,6.56
2023-01-07T00:08:23.851Z,6.53
2023-01-07T00:09:25.316Z,6.44
2023-01-07T00:10:25.677Z,6.49
2023-01-07T00:11:26.695Z,6.49
2023-01-07T00:12:26.933Z,6.39
2023-01-07T00:13:27.425Z,6.38
2023-01-07T00:14:27.616Z,6.43
2023-01-07T00:15:28.851Z,6.39
2023-01-07T00:16:29.360Z,6.43
2023-01-07T00:17:29.890Z,6.46
2023-01-07T00:18:29.945Z,6.32
2023-01-07T00:19:30.603Z,6.41
2023-01-07T00:20:31.958Z,6.28
2023-01-07T00:21:33.233Z,6.28
2023-01-07T00:22:33.296Z,6.25
2023-01-07T00:23:33.558Z,6.13
2023-01-07T00:24:34.890Z,6.16
2023-01-07T00:25:35.244Z,6.15
2023-01-07T00:26:36.552Z,6.05
2023-01-07T00:27:36.168Z,6.06
2023-01-07T00:28:37.092Z,6.09
2023-01-07T00:29:37.312Z,6.09
2023-01-07T00:30:37.547Z,6.06
2023-01-07T00:31:38.791Z,6.05
2023-01-07T00:32:39.213Z,5.98
2023-01-07T00:33:40.237Z,6.06
2023-01-07T00:34:40.880Z,5.94
2023-01-07T00:35:41.131Z,6.01
2023-01-07T00:36:41.644Z,5.99
2023-01-07T00:37:41.977Z,6.05
2023-01-07T00:38:42.195Z,6.09
2023-01-07T00:39:42.656Z,6.05
2023-01-07T00:40:43.167Z,6.06
2023-01-07T00:41:43.695Z,6.07
2023-01-07T00:42:43.906Z,5.99
2023-01-07T00:43:44.870Z,6.01
2023-01-07T00:44:45.377Z,5.91
2023-01-07T00:45:46.126Z,6.06
2023-01-07T00:46:47.090Z,5.95
2023-01-07T00:47:47.576Z,5.97
2023-01-07T00:48:48.350Z,5.99
2023-01-07T00:49:48.842Z,5.94
2023-01-07T00:50:49.334Z,5.94
2023-01-07T00:51:49.866Z,5.95
2023-01-07T00:52:49.627Z,5.95
2023-01-07T00:53:50.825Z,5.87
2023-01-07T00:54:51.162Z,5.9
2023-01-07T00:55:51.675Z,5.95
2023-01-07T00:56:51.656Z,5.98
2023-01-07T00:57:51.904Z,5.92
2023-01-07T00:58:52.518Z,5.87
2023-01-07T00:59:53.437Z,5.8
2023-01-07T01:00:54.503Z,5.8
2023-01-07T01:01:54.364Z,5.88
2023-01-07T01:02:54.982Z,5.84
2023-01-07T01:03:55.676Z,5.92
2023-01-07T01:04:55.603Z,5.97
2023-01-07T01:05:55.533Z,5.84
2023-01-07T01:06:56.187Z,5.88
2023-01-07T01:07:56.510Z,5.81
2023-01-07T01:08:57.446Z,5.81
2023-01-07T01:09:57.483Z,5.74
2023-01-07T01:10:58.576Z,5.73
2023-01-07T01:11:58.553Z,5.77
2023-01-07T01:12:59.096Z,5.7
2023-01-07T01:13:59.325Z,5.69
2023-01-07T01:14:59.953Z,5.61
2023-01-07T01:16:00.432Z,5.65
2023-01-07T01:17:00.380Z,5.65
2023-01-07T01:18:01.584Z,5.58
2023-01-07T01:19:02.899Z,5.59
2023-01-07T01:20:03.854Z,5.61
2023-01-07T01:21:04.055Z,5.64
2023-01-07T01:22:04.372Z,5.59
2023-01-07T01:23:05.418Z,5.64
2023-01-07T01:24:06.609Z,5.62
2023-01-07T01:25:07.236Z,5.74
2023-01-07T01:26:06.918Z,5.74
2023-01-07T01:27:08.425Z,5.74
2023-01-07T01:28:08.617Z,5.73
2023-01-07T01:29:09.535Z,5.76
2023-01-07T01:30:10.502Z,5.77
2023-01-07T01:31:12.114Z,5.81
2023-01-07T01:32:11.692Z,5.84
2023-01-07T01:33:12.318Z,5.88
2023-01-07T01:34:13.393Z,5.9
2023-01-07T01:35:14.319Z,5.9
2023-01-07T01:36:15.230Z,5.87
2023-01-07T01:37:15.439Z,5.84
2023-01-07T01:38:15.489Z,5.97
2023-01-07T01:39:16.421Z,5.94
2023-01-07T01:40:17.171Z,5.99
2023-01-07T01:41:18.384Z,5.95
2023-01-07T01:42:18.691Z,6.02
2023-01-07T01:43:18.898Z,5.99
2023-01-07T01:44:19.379Z,5.95
2023-01-07T01:45:19.897Z,5.87
2023-01-07T01:46:20.347Z,5.8
2023-01-07T01:47:20.857Z,5.72
2023-01-07T01:48:21.361Z,5.64
2023-01-07T01:49:22.157Z,5.61
2023-01-07T01:50:22.373Z,5.54
2023-01-07T01:51:22.585Z,5.61
2023-01-07T01:52:23.591Z,5.46
2023-01-07T01:53:23.925Z,5.59
2023-01-07T01:54:23.848Z,5.55
2023-01-07T01:55:24.805Z,5.51
2023-01-07T01:56:26.012Z,5.54
2023-01-07T01:57:26.512Z,5.52
2023-01-07T01:58:26.453Z,5.47
2023-01-07T01:59:27.376Z,5.43
2023-01-07T02:00:28.122Z,5.47
2023-01-07T02:01:29.284Z,5.43
2023-01-07T02:02:29.565Z,5.46
2023-01-07T02:03:30.252Z,5.46
2023-01-07T02:04:30.591Z,5.41
2023-01-07T02:05:30.798Z,5.4
2023-01-07T02:06:31.004Z,5.41
2023-01-07T02:07:31.925Z,5.38
2023-01-07T02:08:32.295Z,5.33
2023-01-07T02:09:33.212Z,5.36
2023-01-07T02:10:33.956Z,5.36
2023-01-07T02:11:35.181Z,5.37
2023-01-07T02:12:36.237Z,5.41
2023-01-07T02:13:37.164Z,5.41
2023-01-07T02:14:37.352Z,5.44
2023-01-07T02:15:37.314Z,5.41
2023-01-07T02:16:38.216Z,5.44
2023-01-07T02:17:38.583Z,5.47
2023-01-07T02:18:38.793Z,5.44
2023-01-07T02:19:40.140Z,5.49
2023-01-07T02:20:39.799Z,5.51
2023-01-07T02:21:40.708Z,5.51
2023-01-07T02:22:41.213Z,5.4
2023-01-07T02:23:41.279Z,5.34
2023-01-07T02:24:42.210Z,5.46
2023-01-07T02:25:42.974Z,5.41
2023-01-07T02:26:43.896Z,5.41
2023-01-07T02:27:44.817Z,5.37
2023-01-07T02:28:45.745Z,5.52
2023-01-07T02:29:46.403Z,5.43
2023-01-07T02:30:47.031Z,5.46
2023-01-07T02:31:47.577Z,5.51
2023-01-07T02:32:48.157Z,5.44
2023-01-07T02:33:49.353Z,5.43
2023-01-07T02:34:49.680Z,5.44
2023-01-07T02:35:49.917Z,5.38
2023-01-07T02:36:50.871Z,5.4
2023-01-07T02:37:51.380Z,5.37
2023-01-07T02:38:51.750Z,5.29
2023-01-07T02:39:51.720Z,5.28
2023-01-07T02:40:52.225Z,5.22
2023-01-07T02:41:52.166Z,5.22
2023-01-07T02:42:53.131Z,5.19
2023-01-07T02:43:52.814Z,5.2
2023-01-07T02:44:54.035Z,5.12
2023-01-07T02:45:53.962Z,5.1
2023-01-07T02:46:54.779Z,5.13
2023-01-07T02:47:55.842Z,5.07
2023-01-07T02:48:56.327Z,5.12
2023-01-07T02:49:56.668Z,4.95
2023-01-07T02:50:56.587Z,5.05
2023-01-07T02:51:56.793Z,4.87
2023-01-07T02:52:57.354Z,4.83
2023-01-07T02:53:57.923Z,4.86
2023-01-07T02:54:59.144Z,4.9
2023-01-07T02:55:59.488Z,4.86
2023-01-07T02:56:59.703Z,4.89
2023-01-07T02:58:00.949Z,4.83
2023-01-07T02:59:01.425Z,4.84
2023-01-07T03:00:01.350Z,4.76
2023-01-07T03:01:02.217Z,4.75
2023-01-07T03:02:03.105Z,4.82
2023-01-07T03:03:02.985Z,4.82
2023-01-07T03:04:03.410Z,4.76
2023-01-07T03:05:03.727Z,4.7
2023-01-07T03:06:04.240Z,4.67
2023-01-07T03:07:05.153Z,4.71
2023-01-07T03:08:05.085Z,4.67
2023-01-07T03:09:05.120Z,4.64
2023-01-07T03:10:06.092Z,4.56
2023-01-07T03:11:06.429Z,4.58
2023-01-07T03:12:07.106Z,4.57
2023-01-07T03:13:07.841Z,4.57
2023-01-07T03:14:08.479Z,4.58
2023-01-07T03:15:08.701Z,4.58
2023-01-07T03:16:09.950Z,4.43
2023-01-07T03:17:09.923Z,4.39
2023-01-07T03:18:10.371Z,4.45
2023-01-07T03:19:11.585Z,4.39
2023-01-07T03:20:12.416Z,4.43
2023-01-07T03:21:13.054Z,4.48
2023-01-07T03:22:14.265Z,4.43
2023-01-07T03:23:15.094Z,4.36
2023-01-07T03:24:15.551Z,4.45
2023-01-07T03:25:15.487Z,4.53
2023-01-07T03:26:16.807Z,4.45
2023-01-07T03:27:16.723Z,4.49
2023-01-07T03:28:17.257Z,4.58
2023-01-07T03:29:17.451Z,4.53
2023-01-07T03:30:18.090Z,4.57
2023-01-07T03:31:18.842Z,4.5
2023-01-07T03:32:19.234Z,4.56
2023-01-07T03:33:19.809Z,4.53
2023-01-07T03:34:20.726Z,4.6
2023-01-07T03:35:20.760Z,4.58
2023-01-07T03:36:21.395Z,4.52
2023-01-07T03:37:22.639Z,4.57
2023-01-07T03:38:22.851Z,4.66
2023-01-07T03:39:22.939Z,4.58
2023-01-07T03:40:24.138Z,4.6
2023-01-07T03:41:24.445Z,4.53
2023-01-07T03:42:25.144Z,4.46
2023-01-07T03:43:25.583Z,4.52
2023-01-07T03:44:25.963Z,4.57
2023-01-07T03:45:27.629Z,4.53
2023-01-07T03:46:28.258Z,4.5
2023-01-07T03:47:29.327Z,4.52
2023-01-07T03:48:30.362Z,4.48
2023-01-07T03:49:30.023Z,4.3
2023-01-07T03:50:31.350Z,4.38
2023-01-07T03:51:31.274Z,4.28
2023-01-07T03:52:31.469Z,4.16
2023-01-07T03:53:32.217Z,4.16
2023-01-07T03:54:32.544Z,4.13
2023-01-07T03:55:32.747Z,4.21
2023-01-07T03:56:33.064Z,4.04
2023-01-07T03:57:34.016Z,4.03
2023-01-07T03:58:35.214Z,4.04
2023-01-07T03:59:35.418Z,3.95
2023-01-07T04:00:35.611Z,3.95
2023-01-07T04:01:37.545Z,3.92
2023-01-07T04:02:37.540Z,3.99
2023-01-07T04:03:38.167Z,3.92
2023-01-07T04:04:38.384Z,3.94
2023-01-07T04:05:39.276Z,4
2023-01-07T04:06:39.914Z,4
2023-01-07T04:07:40.294Z,3.99
2023-01-07T04:08:41.535Z,3.95
2023-01-07T04:09:41.613Z,3.95
2023-01-07T04:10:42.251Z,3.88
2023-01-07T04:11:43.585Z,3.88
2023-01-07T04:12:43.487Z,3.96
2023-01-07T04:13:44.201Z,3.99
2023-01-07T04:14:44.602Z,4.03
2023-01-07T04:15:45.195Z,3.94
2023-01-07T04:16:46.497Z,3.99
2023-01-07T04:17:47.132Z,3.99
2023-01-07T04:18:47.434Z,3.95
2023-01-07T04:19:48.013Z,3.92
2023-01-07T04:20:48.373Z,3.96
2023-01-07T04:21:48.313Z,3.92
2023-01-07T04:22:49.530Z,3.89
2023-01-07T04:23:49.828Z,3.88
2023-01-07T04:24:50.096Z,3.86
2023-01-07T04:25:50.427Z,3.85
2023-01-07T04:26:50.726Z,3.78
2023-01-07T04:27:51.650Z,3.71
2023-01-07T04:28:51.873Z,3.81
2023-01-07T04:29:52.349Z,3.7
2023-01-07T04:30:52.790Z,3.71
2023-01-07T04:31:53.848Z,3.71
2023-01-07T04:32:53.899Z,3.74
2023-01-07T04:33:54.451Z,3.73
2023-01-07T04:34:54.349Z,3.74
2023-01-07T04:35:55.683Z,3.71
2023-01-07T04:36:56.176Z,3.68
2023-01-07T04:37:56.378Z,3.7
2023-01-07T04:38:56.579Z,3.71
2023-01-07T04:39:57.187Z,3.84
2023-01-07T04:40:57.092Z,3.77
2023-01-07T04:41:58.129Z,3.86
2023-01-07T04:42:59.056Z,3.74
2023-01-07T04:43:59.776Z,3.76
2023-01-07T04:45:00.714Z,3.77
2023-01-07T04:46:01.177Z,3.74
2023-01-07T04:47:01.455Z,3.68
2023-01-07T04:48:02.519Z,3.7
2023-01-07T04:49:02.607Z,3.71
2023-01-07T04:50:02.794Z,3.76
2023-01-07T04:51:03.867Z,3.74
2023-01-07T04:52:04.213Z,3.76
2023-01-07T04:53:05.124Z,3.71
2023-01-07T04:54:05.378Z,3.71
2023-01-07T04:55:05.431Z,3.89
2023-01-07T04:56:05.915Z,3.81
2023-01-07T04:57:06.258Z,3.81
2023-01-07T04:58:06.744Z,3.82
2023-01-07T04:59:07.382Z,3.92
2023-01-07T05:00:08.310Z,3.88
2023-01-07T05:01:09.175Z,3.81
2023-01-07T05:02:09.122Z,3.91
2023-01-07T05:03:09.578Z,3.89
2023-01-07T05:04:10.731Z,3.94
2023-01-07T05:05:10.524Z,3.88
2023-01-07T05:06:11.880Z,3.91
2023-01-07T05:07:12.387Z,3.89
2023-01-07T05:08:12.595Z,3.99
2023-01-07T05:09:12.975Z,3.95
2023-01-07T05:10:14.286Z,3.95
2023-01-07T05:11:14.209Z,3.96
2023-01-07T05:12:14.819Z,3.92
2023-01-07T05:13:15.084Z,3.92
2023-01-07T05:14:16.081Z,3.92
2023-01-07T05:15:16.308Z,3.96
2023-01-07T05:16:16.361Z,3.96
2023-01-07T05:17:17.136Z,3.96
2023-01-07T05:18:17.750Z,4
2023-01-07T05:19:18.075Z,4.04
2023-01-07T05:20:18.276Z,4.03
2023-01-07T05:21:18.372Z,4.12
2023-01-07T05:22:18.757Z,4.04
2023-01-07T05:23:20.252Z,4.09
2023-01-07T05:24:21.075Z,4.12
2023-01-07T05:25:21.111Z,4.07
2023-01-07T05:26:21.774Z,4.1
2023-01-07T05:27:22.149Z,4
2023-01-07T05:28:22.789Z,4.04
2023-01-07T05:29:24.300Z,4.03
2023-01-07T05:30:24.493Z,4.02
2023-01-07T05:31:25.304Z,4.02
2023-01-07T05:32:25.803Z,4.04
2023-01-07T05:33:26.101Z,4.02
2023-01-07T05:34:26.535Z,4.12
2023-01-07T05:35:26.737Z,4
2023-01-07T05:36:27.060Z,3.96
2023-01-07T05:37:27.589Z,4.03
2023-01-07T05:38:27.299Z,4.03
2023-01-07T05:39:28.234Z,4.04
2023-01-07T05:40:28.863Z,4.03
2023-01-07T05:41:29.061Z,4
2023-01-07T05:42:30.094Z,3.94
2023-01-07T05:43:31.032Z,3.95
2023-01-07T05:44:31.984Z,3.99
2023-01-07T05:45:32.204Z,4
2023-01-07T05:46:33.434Z,3.96
2023-01-07T05:47:34.408Z,4.07
2023-01-07T05:48:35.468Z,4.03
2023-01-07T05:49:35.224Z,4.06
2023-01-07T05:50:36.706Z,4.04
2023-01-07T05:51:37.342Z,4.03
2023-01-07T05:52:37.555Z,4.02
2023-01-07T05:53:37.488Z,3.96
2023-01-07T05:54:38.487Z,4
2023-01-07T05:55:39.557Z,4.04
2023-01-07T05:56:40.746Z,4.03
2023-01-07T05:57:41.087Z,4
2023-01-07T05:58:41.578Z,4
2023-01-07T05:59:41.817Z,3.99
2023-01-07T06:00:42.034Z,3.94
2023-01-07T06:01:43.001Z,3.94
2023-01-07T06:02:43.500Z,3.91
2023-01-07T06:03:43.990Z,3.81
2023-01-07T06:04:45.033Z,3.84
2023-01-07T06:05:45.506Z,3.85
2023-01-07T06:06:45.837Z,3.81
2023-01-07T06:07:46.067Z,3.74
2023-01-07T06:08:47.014Z,3.77
2023-01-07T06:09:47.655Z,3.82
2023-01-07T06:10:47.703Z,3.68
2023-01-07T06:11:48.920Z,3.81
2023-01-07T06:12:48.955Z,3.77
2023-01-07T06:13:50.412Z,3.7
2023-01-07T06:14:50.388Z,3.73
2023-01-07T06:15:51.250Z,3.7
2023-01-07T06:16:51.421Z,3.73
2023-01-07T06:17:52.672Z,3.71
2023-01-07T06:18:52.709Z,3.7
2023-01-07T06:19:53.322Z,3.63
2023-01-07T06:20:53.810Z,3.68
2023-01-07T06:21:54.446Z,3.67
2023-01-07T06:22:54.100Z,3.55
2023-01-07T06:23:55.025Z,3.46
2023-01-07T06:24:55.455Z,3.59
2023-01-07T06:25:56.069Z,3.53
2023-01-07T06:26:56.749Z,3.4
2023-01-07T06:27:57.359Z,3.45
2023-01-07T06:28:57.898Z,3.46
2023-01-07T06:29:58.396Z,3.48
2023-01-07T06:30:59.037Z,3.43
2023-01-07T06:31:59.039Z,3.48
2023-01-07T06:32:59.989Z,3.46
2023-01-07T06:34:01.044Z,3.53
2023-01-07T06:35:01.024Z,3.45
2023-01-07T06:36:02.259Z,3.56
2023-01-07T06:37:03.589Z,3.34
2023-01-07T06:38:04.075Z,3.34
2023-01-07T06:39:04.268Z,3.5
2023-01-07T06:40:04.189Z,3.45
2023-01-07T06:41:04.803Z,3.36
2023-01-07T06:42:05.480Z,3.3
2023-01-07T06:43:05.524Z,3.43
2023-01-07T06:44:06.754Z,3.37
2023-01-07T06:45:07.282Z,3.3
2023-01-07T06:46:07.397Z,3.36
2023-01-07T06:47:07.837Z,3.49
2023-01-07T06:48:07.754Z,3.49
2023-01-07T06:49:08.788Z,3.52
2023-01-07T06:50:09.746Z,3.49
2023-01-07T06:51:09.945Z,3.4
2023-01-07T06:52:10.699Z,3.5
2023-01-07T06:53:11.636Z,3.43
2023-01-07T06:54:11.278Z,3.5
2023-01-07T06:55:12.327Z,3.43
2023-01-07T06:56:13.392Z,3.46
2023-01-07T06:57:14.306Z,3.43
2023-01-07T06:58:14.927Z,3.63
2023-01-07T06:59:14.837Z,3.52
2023-01-07T07:00:16.035Z,3.43
2023-01-07T07:01:16.950Z,3.4
2023-01-07T07:02:17.756Z,3.55
2023-01-07T07:03:17.592Z,3.48
2023-01-07T07:04:17.744Z,3.43
2023-01-07T07:05:18.376Z,3.46
2023-01-07T07:06:18.575Z,3.52
2023-01-07T07:07:18.923Z,3.58
2023-01-07T07:08:19.295Z,3.4
2023-01-07T07:09:20.791Z,3.5
2023-01-07T07:10:21.711Z,3.43
2023-01-07T07:11:21.784Z,3.37
2023-01-07T07:12:22.316Z,3.48
2023-01-07T07:13:22.349Z,3.48
2023-01-07T07:14:22.834Z,3.49
2023-01-07T07:15:23.561Z,3.46
2023-01-07T07:16:24.532Z,3.43
2023-01-07T07:17:25.099Z,3.5
2023-01-07T07:18:26.016Z,3.52
2023-01-07T07:19:26.763Z,3.41
2023-01-07T07:20:28.079Z,3.37
2023-01-07T07:21:27.999Z,3.43
2023-01-07T07:22:29.046Z,3.48
2023-01-07T07:23:28.958Z,3.61
2023-01-07T07:24:29.891Z,3.43
2023-01-07T07:25:30.446Z,3.41
2023-01-07T07:26:30.712Z,3.52
2023-01-07T07:27:30.629Z,3.52
2023-01-07T07:28:32.146Z,3.58
2023-01-07T07:29:32.439Z,3.55
2023-01-07T07:30:51.677Z,3.59
2023-01-07T07:31:33.376Z,3.59
2023-01-07T07:32:33.772Z,3.59
2023-01-07T07:33:34.438Z,3.56
2023-01-07T07:34:36.652Z,3.58
2023-01-07T07:35:36.635Z,3.55
2023-01-07T07:36:36.609Z,3.66
2023-01-07T07:37:37.274Z,3.67
2023-01-07T07:38:37.778Z,3.76
2023-01-07T07:39:38.282Z,3.68
2023-01-07T07:40:38.229Z,3.73
2023-01-07T07:41:38.859Z,3.85
2023-01-07T07:43:17.029Z,3.82
2023-01-07T07:43:40.640Z,3.85
2023-01-07T07:44:40.265Z,3.85
2023-01-07T07:45:41.497Z,3.89
2023-01-07T07:46:42.642Z,3.86
2023-01-07T07:47:42.485Z,3.94
2023-01-07T07:48:42.689Z,4.03
2023-01-07T07:49:43.784Z,4.03
2023-01-07T07:50:44.173Z,4.07
2023-01-07T07:51:44.413Z,4.24
2023-01-07T07:52:44.738Z,4.25
2023-01-07T07:53:44.956Z,4.3
2023-01-07T07:54:45.453Z,4.38
2023-01-07T07:55:57.686Z,4.57
2023-01-07T07:56:58.027Z,4.56
2023-01-07T07:57:58.400Z,4.7
2023-01-07T07:58:58.086Z,4.89
2023-01-07T07:59:58.514Z,4.94
2023-01-07T08:00:59.240Z,5.05
2023-01-07T08:01:59.321Z,5.19
2023-01-07T08:03:00.162Z,5.43
2023-01-07T08:04:00.652Z,5.52
2023-01-07T08:05:01.342Z,5.7
2023-01-07T08:06:02.032Z,5.76
2023-01-07T08:07:01.951Z,5.79
2023-01-07T08:08:03.032Z,5.79
2023-01-07T08:09:03.534Z,5.77
2023-01-07T08:10:04.183Z,5.76
2023-01-07T08:11:04.452Z,5.7
2023-01-07T08:12:05.141Z,5.92
2023-01-07T08:13:05.119Z,5.95
2023-01-07T08:14:05.818Z,5.95
2023-01-07T08:15:06.164Z,6.05
2023-01-07T08:16:07.567Z,6.01
2023-01-07T08:17:07.487Z,6.16
2023-01-07T08:18:08.405Z,6.01
2023-01-07T08:19:08.638Z,6.15
2023-01-07T08:20:09.065Z,6.02
2023-01-07T08:21:09.396Z,5.94
2023-01-07T08:22:10.356Z,5.9
2023-01-07T08:23:10.680Z,5.81
2023-01-07T08:24:12.962Z,5.76
2023-01-07T08:25:10.643Z,5.67
2023-01-07T08:26:11.994Z,5.76
2023-01-07T08:27:12.365Z,5.7
2023-01-07T08:28:12.585Z,5.72
2023-01-07T08:29:13.082Z,5.79
2023-01-07T08:30:13.708Z,5.81
2023-01-07T08:31:14.899Z,5.97
2023-01-07T08:32:15.246Z,6.01
2023-01-07T08:33:15.755Z,6.09
2023-01-07T08:34:15.702Z,6.16
2023-01-07T08:35:16.347Z,5.99
2023-01-07T08:36:28.377Z,6.02
2023-01-07T08:37:16.590Z,6.1
2023-01-07T08:38:17.911Z,6.13
2023-01-07T08:39:18.410Z,6.05
2023-01-07T08:40:18.359Z,6.09
2023-01-07T08:41:19.297Z,6.1
2023-01-07T08:42:19.362Z,5.99
2023-01-07T08:43:19.856Z,5.99
2023-01-07T08:44:19.849Z,6.02
2023-01-07T08:45:20.174Z,6.12
2023-01-07T08:46:21.266Z,6.05
2023-01-07T08:47:21.667Z,6.12
2023-01-07T08:48:22.031Z,6.35
2023-01-07T08:49:22.261Z,6.68
2023-01-07T08:50:23.590Z,6.87
2023-01-07T08:51:24.125Z,7.04
2023-01-07T08:52:25.165Z,7.05
2023-01-07T08:53:25.227Z,7.19
2023-01-07T08:54:26.446Z,7.11
2023-01-07T08:55:26.668Z,7.1
2023-01-07T08:56:26.954Z,7.13
2023-01-07T08:57:27.272Z,7.07
2023-01-07T08:58:28.219Z,7.19
2023-01-07T08:59:29.446Z,7.33
2023-01-07T09:00:29.908Z,7.37
2023-01-07T09:01:30.440Z,7.58
2023-01-07T09:02:31.134Z,7.66
2023-01-07T09:03:31.696Z,7.83
2023-01-07T09:04:32.454Z,7.87
2023-01-07T09:05:35.807Z,7.84
2023-01-07T09:06:34.334Z,7.87
2023-01-07T09:07:34.661Z,7.83
2023-01-07T09:08:35.213Z,7.85
2023-01-07T09:09:35.508Z,7.77
2023-01-07T09:10:35.440Z,7.69
2023-01-07T09:11:36.682Z,7.66
2023-01-07T09:12:36.800Z,7.61
2023-01-07T09:13:37.723Z,7.61
2023-01-07T09:14:37.346Z,7.58
2023-01-07T09:15:38.425Z,7.44
2023-01-07T09:16:39.385Z,7.33
2023-01-07T09:17:39.136Z,7.36
2023-01-07T09:18:39.782Z,7.59
2023-01-07T09:19:40.743Z,7.67
2023-01-07T09:20:41.498Z,7.84
2023-01-07T09:21:41.744Z,8.06
2023-01-07T09:22:42.805Z,8.24
2023-01-07T09:23:43.173Z,8.32
2023-01-07T09:24:43.378Z,8.18
2023-01-07T09:25:43.776Z,8.2
2023-01-07T09:26:45.317Z,8.16
2023-01-07T09:27:45.677Z,8.14
2023-01-07T09:28:46.223Z,8.24
2023-01-07T09:29:46.453Z,8.24
2023-01-07T09:30:47.064Z,8.36
2023-01-07T09:31:47.436Z,8.63
2023-01-07T09:32:47.532Z,8.86
2023-01-07T09:33:48.775Z,9.09
2023-01-07T09:34:48.689Z,9.18
2023-01-07T09:35:49.325Z,9.26
2023-01-07T09:36:49.602Z,9.34
2023-01-07T09:37:50.668Z,9.36
2023-01-07T09:38:51.031Z,9.54
2023-01-07T09:39:51.387Z,9.67
2023-01-07T09:40:52.745Z,9.58
2023-01-07T09:41:52.953Z,9.58
2023-01-07T09:42:54.297Z,9.69
2023-01-07T09:44:06.980Z,9.82
2023-01-07T09:44:55.626Z,9.91
2023-01-07T09:45:56.390Z,10.12
2023-01-07T09:46:56.885Z,10.27
2023-01-07T09:47:57.274Z,10.42
2023-01-07T09:48:58.686Z,10.53
2023-01-07T09:49:58.939Z,10.59
2023-01-07T09:50:59.312Z,10.69
2023-01-07T09:51:59.516Z,10.9
2023-01-07T09:52:59.577Z,11.08
2023-01-07T09:54:00.913Z,11.27
2023-01-07T09:55:01.274Z,11.37
2023-01-07T09:56:18.144Z,11.3
2023-01-07T09:57:05.921Z,11.19
2023-01-07T09:58:06.552Z,11.2
2023-01-07T09:59:06.495Z,11.31
2023-01-07T10:00:07.194Z,11.6
2023-01-07T10:01:07.729Z,11.76
2023-01-07T10:02:08.086Z,12.07
2023-01-07T10:03:08.099Z,12.23
2023-01-07T10:04:08.267Z,12.35
2023-01-07T10:05:08.433Z,12.44
2023-01-07T10:06:09.072Z,12.54
2023-01-07T10:07:09.546Z,12.57
2023-01-07T10:08:36.311Z,12.76
2023-01-07T10:09:10.640Z,12.83
2023-01-07T10:10:10.878Z,12.51
2023-01-07T10:11:11.373Z,12.33
2023-01-07T10:12:11.650Z,12.21
2023-01-07T10:13:11.985Z,12.3
2023-01-07T10:14:13.197Z,12.37
2023-01-07T10:15:13.795Z,12.32
2023-01-07T10:16:14.322Z,12.23
2023-01-07T10:17:14.778Z,12.25
2023-01-07T10:18:16.307Z,12.14
2023-01-07T10:19:15.816Z,12.25
2023-01-07T10:20:16.062Z,12.45
2023-01-07T10:21:16.935Z,12.68
2023-01-07T10:22:17.886Z,13.02
2023-01-07T10:23:18.112Z,13.33
2023-01-07T10:24:22.299Z,13.57
2023-01-07T10:25:19.308Z,13.89
2023-01-07T10:26:20.228Z,14.04
2023-01-07T10:27:20.231Z,14.31
2023-01-07T10:28:20.601Z,14.52
2023-01-07T10:29:20.817Z,14.61
2023-01-07T10:30:21.310Z,14.79
2023-01-07T10:31:22.159Z,14.96
2023-01-07T10:32:22.824Z,15.1
2023-01-07T10:33:23.766Z,15.11
2023-01-07T10:34:24.008Z,15.29
2023-01-07T10:35:23.667Z,15.3
2023-01-07T10:36:24.741Z,15.3
2023-01-07T10:37:25.065Z,15.48
2023-01-07T10:38:26.010Z,15.48
2023-01-07T10:39:26.464Z,15.66
2023-01-07T10:40:26.118Z,15.84
2023-01-07T10:41:26.325Z,16.17
2023-01-07T10:42:26.872Z,16.31
2023-01-07T10:43:26.958Z,16.31
2023-01-07T10:44:28.175Z,16.25
2023-01-07T10:45:28.578Z,16.34
2023-01-07T10:46:29.487Z,16.51
2023-01-07T10:47:30.459Z,16.62
2023-01-07T10:48:31.413Z,16.79
2023-01-07T10:49:31.807Z,16.69
2023-01-07T10:50:32.835Z,16.62
2023-01-07T10:51:32.888Z,16.69
2023-01-07T10:52:33.839Z,16.8
2023-01-07T10:53:34.057Z,17.1
2023-01-07T10:54:34.517Z,17.23
2023-01-07T10:55:35.060Z,17.37
2023-01-07T10:56:37.821Z,17.56
2023-01-07T10:57:35.857Z,17.68
2023-01-07T10:58:36.193Z,17.65
2023-01-07T10:59:37.163Z,17.66
2023-01-07T11:00:37.819Z,17.49
2023-01-07T11:01:39.000Z,17.41
2023-01-07T11:02:39.233Z,17.38
2023-01-07T11:03:39.901Z,17.35
2023-01-07T11:04:40.408Z,17.34
2023-01-07T11:05:40.335Z,17.23
2023-01-07T11:06:40.975Z,17.12
2023-01-07T11:07:41.506Z,16.92
2023-01-07T11:08:42.017Z,16.84
2023-01-07T11:09:42.770Z,16.8
2023-01-07T11:10:43.056Z,16.69
2023-01-07T11:11:43.444Z,16.55
2023-01-07T11:12:44.971Z,16.46
2023-01-07T11:13:45.621Z,16.39
2023-01-07T11:14:45.288Z,16.39
2023-01-07T11:15:45.950Z,16.36
2023-01-07T11:16:46.717Z,16.4
2023-01-07T11:17:47.566Z,16.31
2023-01-07T11:18:47.500Z,16.34
2023-01-07T11:19:48.453Z,16.39
2023-01-07T11:20:49.451Z,16.18
2023-01-07T11:21:51.089Z,16.05
2023-01-07T11:22:50.586Z,16.08
2023-01-07T11:23:50.240Z,15.83
2023-01-07T11:24:51.696Z,15.62
2023-01-07T11:25:51.381Z,15.39
2023-01-07T11:26:52.645Z,15.18
2023-01-07T11:27:53.207Z,15.07
2023-01-07T11:28:53.923Z,14.77
2023-01-07T11:29:55.261Z,14.58
2023-01-07T11:30:54.306Z,14.38
2023-01-07T11:31:55.608Z,14.36
2023-01-07T11:32:56.107Z,14.41
2023-01-07T11:34:09.665Z,14.34
2023-01-07T11:34:57.040Z,14.37
2023-01-07T11:35:57.978Z,14.38
2023-01-07T11:36:58.616Z,14.28
2023-01-07T11:37:58.372Z,14.2
2023-01-07T11:38:59.888Z,14.16
2023-01-07T11:40:00.380Z,14.04
2023-01-07T11:41:01.441Z,13.97
2023-01-07T11:42:01.969Z,13.71
2023-01-07T11:43:02.219Z,13.68
2023-01-07T11:44:02.553Z,13.65
2023-01-07T11:45:02.797Z,13.8
2023-01-07T11:46:27.473Z,13.91
2023-01-07T11:47:04.995Z,13.87
2023-01-07T11:48:04.986Z,13.8
2023-01-07T11:49:05.695Z,13.73
2023-01-07T11:50:05.928Z,13.7
2023-01-07T11:51:07.176Z,13.61
2023-01-07T11:52:07.517Z,13.61
2023-01-07T11:53:08.464Z,13.64
2023-01-07T11:54:08.403Z,13.68
2023-01-07T11:55:09.593Z,13.78
2023-01-07T11:56:09.543Z,13.79
2023-01-07T11:57:10.775Z,13.71
2023-01-07T11:58:36.294Z,13.68
2023-01-07T11:59:11.648Z,13.78
2023-01-07T12:00:11.873Z,13.8
2023-01-07T12:01:12.226Z,13.75
2023-01-07T12:02:16.399Z,13.7
2023-01-07T12:03:14.334Z,13.57
2023-01-07T12:04:14.835Z,13.52
2023-01-07T12:05:15.092Z,13.55
2023-01-07T12:06:15.018Z,13.58
2023-01-07T12:07:16.659Z,13.57
2023-01-07T12:08:16.637Z,13.57
2023-01-07T12:09:17.287Z,13.37
2023-01-07T12:10:18.785Z,13.4
2023-01-07T12:11:19.303Z,13.39
2023-01-07T12:12:20.247Z,13.47
2023-01-07T12:13:21.190Z,13.45
2023-01-07T12:14:21.907Z,13.57
2023-01-07T12:15:23.254Z,13.75
2023-01-07T12:16:23.980Z,13.75
2023-01-07T12:17:23.924Z,13.82
2023-01-07T12:18:25.066Z,13.86
2023-01-07T12:19:25.581Z,14.11
2023-01-07T12:20:26.107Z,14.19
2023-01-07T12:21:26.333Z,14.31
2023-01-07T12:22:26.681Z,14.56
2023-01-07T12:23:26.922Z,14.59
2023-01-07T12:24:27.450Z,14.85
2023-01-07T12:25:28.646Z,14.89
2023-01-07T12:26:28.430Z,14.81
2023-01-07T12:27:28.790Z,14.93
2023-01-07T12:28:29.320Z,15.11
2023-01-07T12:29:30.356Z,15.15
2023-01-07T12:30:30.449Z,15.08
2023-01-07T12:31:30.783Z,15.12
2023-01-07T12:32:30.871Z,15.04
2023-01-07T12:33:32.199Z,14.9
2023-01-07T12:34:32.854Z,14.77
2023-01-07T12:35:33.780Z,14.66
2023-01-07T12:36:34.023Z,14.61
2023-01-07T12:37:38.073Z,14.62
2023-01-07T12:38:36.183Z,14.77
2023-01-07T12:39:36.426Z,14.74
2023-01-07T12:40:37.327Z,14.74
2023-01-07T12:41:37.831Z,14.79
2023-01-07T12:42:37.525Z,14.9
2023-01-07T12:43:38.771Z,14.93
2023-01-07T12:44:40.003Z,15.04
2023-01-07T12:45:40.349Z,15.1
2023-01-07T12:46:41.323Z,15.02
2023-01-07T12:47:41.441Z,14.93
2023-01-07T12:48:42.120Z,15.08
2023-01-07T12:49:43.351Z,15.05
2023-01-07T12:50:44.062Z,15.04
2023-01-07T12:51:45.024Z,15.04
2023-01-07T12:52:46.091Z,14.97
2023-01-07T12:53:46.316Z,14.81
2023-01-07T12:54:46.687Z,14.58
2023-01-07T12:55:47.497Z,14.43
2023-01-07T12:56:48.015Z,14.41
2023-01-07T12:57:49.014Z,14.3
2023-01-07T12:58:49.309Z,14.31
2023-01-07T12:59:55.030Z,14.2
2023-01-07T13:00:50.171Z,14.16
2023-01-07T13:01:51.746Z,14.12
2023-01-07T13:02:51.415Z,14.08
2023-01-07T13:03:51.477Z,13.93
2023-01-07T13:04:52.944Z,14.01
2023-01-07T13:05:52.812Z,13.87
2023-01-07T13:06:54.112Z,13.86
2023-01-07T13:07:55.481Z,13.79
2023-01-07T13:08:56.054Z,13.8
2023-01-07T13:09:57.029Z,13.82
2023-01-07T13:10:57.495Z,13.8
2023-01-07T13:11:57.747Z,13.91
2023-01-07T13:12:57.851Z,13.97
2023-01-07T13:13:58.083Z,14.16
2023-01-07T13:14:58.714Z,14.23
2023-01-07T13:15:59.244Z,14.43
2023-01-07T13:16:59.700Z,14.43
2023-01-07T13:18:00.259Z,14.56
2023-01-07T13:19:00.432Z,14.66
2023-01-07T13:20:00.382Z,14.77
2023-01-07T13:21:01.319Z,14.7
2023-01-07T13:22:01.549Z,14.68